Terminal Aerodrome Forecast
Issued by NWS

Home | Current Version | Previous Version | Text Only | Print | Product List | Glossary On
Versions: 1 2 3 4 5 6 7 8 9 10 11 12
000
FTUS43 KAPX 232320
TAFAPN
TAF
KAPN 232320Z 2400/2424 VRB02KT P6SM FEW250
     FM241800 17005KT P6SM -SHRA BKN025
     FM241900 12005KT P6SM -SHRA BKN025=

USA.gov is the U.S. government's official web portal to all federal, state and local government web resources and services.